Time;durP1;ratioP1;P1;durP2;ratioP2;P2;SDS_P1;SDS_P2;PMS_P1;PMS_P2;Temp;Humidity;BMP_temperature;BMP_pressure;BME280_temperature;BME280_humidity;BME280_pressure;Samples;Min_cycle;Max_cycle;Signal;HPM_P1;HPM_P2
2022/06/07 00:00:45;;;;;;;13.88;4.13;;;12.20;99.90;;;;;;4250611;27;20050;-83
2022/06/07 00:02:46;;;;;;;7.60;3.35;;;12.20;99.90;;;;;;4249935;27;20043;-83
2022/06/07 00:04:47;;;;;;;9.82;3.45;;;12.30;99.90;;;;;;4231792;28;20499;-83
2022/06/07 00:06:47;;;;;;;8.18;3.78;;;12.20;99.90;;;;;;4250546;27;20518;-82
2022/06/07 00:08:48;;;;;;;7.07;3.47;;;12.20;99.90;;;;;;4250228;27;20054;-82
2022/06/07 00:10:49;;;;;;;9.32;2.97;;;12.30;99.90;;;;;;4231697;28;20047;-82
2022/06/07 00:12:53;;;;;;;10.77;3.22;;;12.20;99.90;;;;;;4250100;27;20089;-83
2022/06/07 00:14:53;;;;;;;5.72;3.10;;;12.20;99.90;;;;;;4249353;27;20121;-83
2022/06/07 00:16:54;;;;;;;9.63;3.58;;;12.20;99.90;;;;;;4249977;27;20042;-83
2022/06/07 00:18:55;;;;;;;11.68;4.03;;;12.20;99.90;;;;;;4249813;27;20035;-83
2022/06/07 00:20:56;;;;;;;9.43;3.45;;;12.20;99.90;;;;;;4231437;28;20063;-83
2022/06/07 00:22:58;;;;;;;7.30;3.45;;;12.20;99.90;;;;;;4250441;27;20562;-83
2022/06/07 00:24:58;;;;;;;6.75;4.07;;;12.20;99.90;;;;;;4249739;27;20046;-83
2022/06/07 00:27:00;;;;;;;9.00;3.75;;;12.20;99.90;;;;;;4248023;27;20039;-83
2022/06/07 00:29:01;;;;;;;8.38;3.70;;;12.20;99.90;;;;;;4250075;27;20035;-83
2022/06/07 00:31:03;;;;;;;7.85;3.08;;;12.20;99.90;;;;;;4249534;27;20035;-84
2022/06/07 00:33:05;;;;;;;6.75;3.15;;;12.20;99.90;;;;;;4249905;27;20043;-83
2022/06/07 00:35:08;;;;;;;6.15;3.35;;;12.20;99.90;;;;;;4250354;27;20046;-83
2022/06/07 00:37:09;;;;;;;6.88;3.40;;;12.20;99.90;;;;;;4243724;27;20043;-83
2022/06/07 00:39:11;;;;;;;11.60;3.70;;;12.20;99.90;;;;;;4232420;28;20042;-83
2022/06/07 00:41:12;;;;;;;8.27;3.53;;;12.20;99.90;;;;;;4232178;28;20051;-82
2022/06/07 00:43:13;;;;;;;8.05;3.80;;;12.10;99.90;;;;;;4232602;28;20126;-83
2022/06/07 00:45:18;;;;;;;6.10;3.35;;;12.10;99.90;;;;;;4214378;28;20048;-83
2022/06/07 00:47:23;;;;;;;10.30;4.05;;;12.10;99.90;;;;;;4232626;28;20093;-83
2022/06/07 00:49:26;;;;;;;8.85;4.30;;;12.20;99.90;;;;;;4216143;28;20040;-83
2022/06/07 00:51:27;;;;;;;8.65;4.18;;;12.20;99.90;;;;;;4232385;28;20464;-83
2022/06/07 00:53:30;;;;;;;7.55;3.80;;;12.20;99.90;;;;;;4217482;28;20052;-83
2022/06/07 00:55:31;;;;;;;12.68;4.85;;;12.10;99.90;;;;;;4237792;28;20063;-83
2022/06/07 00:57:33;;;;;;;11.15;5.40;;;12.10;99.90;;;;;;4237648;28;20042;-83
2022/06/07 00:59:34;;;;;;;7.20;4.05;;;12.10;99.90;;;;;;4239695;28;20031;-83
2022/06/07 01:01:35;;;;;;;9.52;4.75;;;12.10;99.90;;;;;;4220247;28;20079;-83
2022/06/07 01:03:35;;;;;;;10.82;4.30;;;12.10;99.90;;;;;;4238394;28;20384;-83
2022/06/07 01:05:36;;;;;;;10.00;5.07;;;12.10;99.90;;;;;;4237966;28;20046;-82
2022/06/07 01:12:16;;;;;;;10.20;4.82;;;12.10;99.90;;;;;;4223430;28;20062;-83
2022/06/07 01:14:16;;;;;;;11.68;4.97;;;12.20;99.90;;;;;;4241511;28;20047;-82
2022/06/07 01:16:17;;;;;;;13.07;5.53;;;12.10;99.90;;;;;;4238392;28;20090;-83
2022/06/07 01:18:18;;;;;;;10.65;4.53;;;12.20;99.90;;;;;;4216345;28;20056;-83
2022/06/07 01:20:18;;;;;;;10.48;5.28;;;12.10;99.90;;;;;;4234632;28;20047;-83
2022/06/07 01:22:20;;;;;;;9.77;4.38;;;12.10;99.90;;;;;;4234175;28;20134;-83
2022/06/07 01:24:21;;;;;;;8.80;4.63;;;12.20;99.90;;;;;;4234577;28;20044;-83
2022/06/07 01:26:22;;;;;;;7.90;3.85;;;12.20;99.90;;;;;;4234386;28;20530;-83
2022/06/07 01:28:23;;;;;;;12.32;4.45;;;12.20;99.90;;;;;;4234793;28;20069;-83
2022/06/07 01:30:25;;;;;;;10.93;4.45;;;12.20;99.90;;;;;;4234430;28;20122;-83
2022/06/07 01:32:26;;;;;;;7.93;4.35;;;12.20;99.90;;;;;;4233837;28;20109;-83
2022/06/07 01:34:27;;;;;;;13.40;4.75;;;12.20;99.90;;;;;;4233644;28;20047;-83
2022/06/07 01:36:28;;;;;;;10.25;4.45;;;12.20;99.90;;;;;;4234078;28;20078;-83
2022/06/07 01:38:41;;;;;;;13.52;4.40;;;12.20;99.90;;;;;;4232460;28;20055;-83
2022/06/07 01:43:09;;;;;;;12.75;4.57;;;12.20;99.90;;;;;;4233765;28;20054;-83
2022/06/07 01:45:10;;;;;;;13.35;4.65;;;12.20;99.90;;;;;;4233476;28;20039;-83
2022/06/07 01:47:14;;;;;;;10.88;3.88;;;12.20;99.90;;;;;;4216065;28;20085;-83
2022/06/07 01:49:16;;;;;;;9.07;4.50;;;12.30;99.90;;;;;;4233833;28;20035;-83
2022/06/07 01:51:17;;;;;;;10.85;4.28;;;12.20;99.90;;;;;;4233081;28;20043;-83
2022/06/07 01:53:18;;;;;;;10.00;4.70;;;12.30;99.90;;;;;;4233363;28;20483;-82
2022/06/07 01:55:18;;;;;;;9.07;4.72;;;12.30;99.90;;;;;;4234927;28;20075;-82
2022/06/07 01:57:22;;;;;;;12.55;4.88;;;12.30;99.90;;;;;;4234837;28;20051;-82
2022/06/07 01:59:23;;;;;;;9.18;4.30;;;12.30;99.90;;;;;;4235330;28;20484;-82
2022/06/07 02:01:24;;;;;;;13.95;4.88;;;12.30;99.90;;;;;;4235160;28;20040;-81
2022/06/07 02:03:24;;;;;;;11.07;4.90;;;12.30;99.90;;;;;;4237165;28;20071;-82
2022/06/07 02:05:27;;;;;;;8.40;4.10;;;12.30;99.90;;;;;;4240092;28;20438;-81
2022/06/07 02:07:29;;;;;;;11.30;4.25;;;12.30;99.90;;;;;;4240942;28;20104;-81
2022/06/07 02:09:30;;;;;;;10.38;4.15;;;12.30;99.90;;;;;;4241259;28;20050;-81
2022/06/07 02:11:31;;;;;;;10.07;4.32;;;12.30;99.90;;;;;;4248507;28;20023;-81
2022/06/07 02:13:32;;;;;;;11.35;4.30;;;12.30;99.90;;;;;;4247006;28;20053;-82
2022/06/07 02:15:33;;;;;;;8.32;4.13;;;12.40;99.90;;;;;;4248014;28;20043;-81
2022/06/07 02:17:34;;;;;;;9.02;4.53;;;12.40;99.90;;;;;;4240891;28;20120;-82
2022/06/07 02:19:35;;;;;;;11.32;4.82;;;12.40;99.90;;;;;;4238070;28;20503;-82
2022/06/07 02:21:38;;;;;;;7.05;4.20;;;12.40;99.90;;;;;;4232772;28;20063;-82
2022/06/07 02:23:39;;;;;;;11.57;4.57;;;12.40;99.90;;;;;;4231371;28;20051;-82
2022/06/07 02:25:53;;;;;;;8.00;4.63;;;12.40;99.90;;;;;;4231309;28;20036;-82
2022/06/07 02:27:54;;;;;;;9.48;4.18;;;12.40;99.90;;;;;;4231485;28;20062;-82
2022/06/07 02:29:55;;;;;;;16.67;4.57;;;12.40;99.90;;;;;;4232037;28;20039;-82
2022/06/07 02:32:02;;;;;;;10.48;4.18;;;12.40;99.90;;;;;;4232114;28;20304;-82
2022/06/07 02:34:06;;;;;;;11.68;4.85;;;12.40;99.90;;;;;;4232202;28;20524;-82
2022/06/07 02:36:08;;;;;;;15.13;5.55;;;12.40;99.90;;;;;;4232357;28;20093;-82
2022/06/07 02:38:12;;;;;;;10.80;4.95;;;12.40;99.90;;;;;;4231540;28;20044;-82
2022/06/07 02:40:12;;;;;;;12.13;4.28;;;12.40;99.90;;;;;;4231573;28;20039;-82
2022/06/07 02:42:16;;;;;;;10.73;4.95;;;12.40;99.90;;;;;;4246127;28;20086;-83
2022/06/07 02:44:18;;;;;;;13.18;4.97;;;12.40;99.90;;;;;;4248371;28;20050;-83
2022/06/07 02:46:19;;;;;;;9.63;4.38;;;12.50;99.90;;;;;;4248113;28;20047;-83
2022/06/07 02:48:20;;;;;;;7.07;4.38;;;12.50;99.90;;;;;;4248434;27;20039;-83
2022/06/07 02:50:21;;;;;;;8.15;4.80;;;12.50;99.90;;;;;;4231820;28;20055;-83
2022/06/07 02:52:21;;;;;;;10.25;4.85;;;12.50;99.90;;;;;;4251718;27;20051;-82
2022/06/07 02:54:22;;;;;;;12.27;5.18;;;12.50;99.90;;;;;;4252099;27;20075;-82
2022/06/07 02:56:23;;;;;;;11.35;4.30;;;12.50;99.90;;;;;;4252120;27;20534;-82
2022/06/07 02:58:25;;;;;;;12.15;4.70;;;12.50;99.90;;;;;;4251424;27;20052;-82
2022/06/07 03:00:28;;;;;;;13.60;4.70;;;12.40;99.90;;;;;;4251589;27;20372;-82
2022/06/07 03:02:29;;;;;;;9.85;4.60;;;12.40;99.90;;;;;;4251692;27;20042;-82
2022/06/07 03:04:29;;;;;;;9.98;4.80;;;12.50;99.90;;;;;;4251821;27;20043;-82
2022/06/07 03:06:30;;;;;;;12.05;4.57;;;12.40;99.90;;;;;;4251647;27;20465;-83
2022/06/07 03:08:31;;;;;;;8.38;4.80;;;12.40;99.90;;;;;;4252111;27;20490;-82
2022/06/07 03:10:31;;;;;;;11.15;4.70;;;12.40;99.90;;;;;;4252023;27;20039;-82
2022/06/07 03:12:32;;;;;;;9.23;4.70;;;12.40;99.90;;;;;;4251644;27;20088;-83
2022/06/07 03:14:33;;;;;;;7.18;4.03;;;12.40;99.90;;;;;;4251888;27;20529;-83
2022/06/07 03:16:34;;;;;;;12.35;4.93;;;12.40;99.90;;;;;;4251382;27;20047;-82
2022/06/07 03:18:34;;;;;;;13.32;5.07;;;12.40;99.90;;;;;;4251359;27;20108;-83
2022/06/07 03:20:36;;;;;;;11.55;4.65;;;12.40;99.90;;;;;;4250682;27;20486;-83
2022/06/07 03:22:37;;;;;;;13.80;5.47;;;12.40;99.90;;;;;;4232389;28;20122;-83
2022/06/07 03:24:38;;;;;;;13.95;5.40;;;12.40;99.90;;;;;;4250640;27;20043;-83
2022/06/07 03:26:38;;;;;;;11.10;4.85;;;12.40;99.90;;;;;;4253518;27;20046;-83
2022/06/07 03:28:39;;;;;;;11.65;4.72;;;12.40;99.90;;;;;;4250689;27;20368;-83
2022/06/07 03:30:41;;;;;;;11.48;4.85;;;12.40;99.90;;;;;;4250136;27;20092;-82
2022/06/07 03:32:44;;;;;;;15.82;4.82;;;12.50;99.90;;;;;;4250659;27;20097;-83
2022/06/07 03:34:47;;;;;;;12.38;5.43;;;12.50;99.90;;;;;;4250775;27;20483;-83
2022/06/07 03:36:47;;;;;;;13.10;5.38;;;12.50;99.90;;;;;;4248098;27;20043;-82
2022/06/07 03:38:51;;;;;;;12.43;5.07;;;12.00;99.90;;;;;;4234026;28;20092;-83
2022/06/07 03:40:52;;;;;;;13.15;5.05;;;12.50;99.90;;;;;;4233758;28;20134;-82
2022/06/07 03:42:52;;;;;;;8.35;4.10;;;12.50;99.90;;;;;;4233371;28;20044;-83
2022/06/07 03:44:54;;;;;;;8.60;4.30;;;12.50;99.90;;;;;;4234285;27;20047;-83
2022/06/07 03:46:55;;;;;;;9.43;4.22;;;12.50;99.90;;;;;;4236157;27;20040;-83
2022/06/07 03:48:56;;;;;;;12.93;4.50;;;12.40;99.90;;;;;;4233560;28;20094;-85
2022/06/07 03:50:57;;;;;;;13.02;5.20;;;12.30;99.90;;;;;;4233897;28;20073;-85
2022/06/07 03:53:00;;;;;;;7.53;4.45;;;12.30;99.90;;;;;;4233101;28;20050;-86
2022/06/07 03:55:01;;;;;;;12.60;5.20;;;12.20;99.90;;;;;;4233737;28;20399;-86
2022/06/07 03:57:03;;;;;;;8.73;4.82;;;12.10;99.90;;;;;;4233696;28;20123;-83
2022/06/07 03:59:03;;;;;;;9.55;4.43;;;12.10;99.90;;;;;;4233539;28;20039;-83
2022/06/07 04:01:06;;;;;;;11.35;5.60;;;12.00;99.90;;;;;;4233660;28;20483;-83
2022/06/07 04:03:08;;;;;;;15.48;4.90;;;12.00;99.90;;;;;;4219217;28;20048;-83
2022/06/07 04:05:09;;;;;;;15.02;4.80;;;11.90;99.90;;;;;;4244676;27;20038;-83
2022/06/07 04:09:31;;;;;;;11.90;4.60;;;11.80;99.90;;;;;;4244388;27;20127;-82
2022/06/07 04:11:33;;;;;;;13.18;4.63;;;11.70;99.90;;;;;;4234670;28;20109;-83
2022/06/07 04:13:33;;;;;;;13.98;5.55;;;11.70;99.90;;;;;;4234197;28;20126;-83
2022/06/07 04:15:34;;;;;;;11.80;5.22;;;11.60;99.90;;;;;;4234406;28;20036;-83
2022/06/07 04:17:35;;;;;;;16.02;5.18;;;11.60;99.90;;;;;;4234018;28;20044;-83
2022/06/07 04:19:38;;;;;;;10.40;4.50;;;11.60;99.90;;;;;;4234062;28;20051;-83
2022/06/07 04:21:39;;;;;;;9.63;4.50;;;11.60;99.90;;;;;;4244673;27;20051;-83
2022/06/07 04:23:40;;;;;;;7.85;4.43;;;11.60;99.90;;;;;;4233202;28;20088;-83
2022/06/07 04:25:41;;;;;;;12.30;4.22;;;11.50;99.90;;;;;;4251103;27;20141;-83
2022/06/07 04:27:42;;;;;;;8.82;3.92;;;11.50;99.90;;;;;;4251204;27;20035;-83
2022/06/07 04:29:42;;;;;;;8.80;3.65;;;11.50;99.90;;;;;;4251299;27;20150;-83
2022/06/07 04:31:43;;;;;;;7.43;4.03;;;11.50;99.90;;;;;;4251071;27;20046;-83
2022/06/07 04:33:45;;;;;;;9.65;3.80;;;11.50;99.90;;;;;;4250986;27;20047;-83
2022/06/07 04:35:46;;;;;;;10.18;3.05;;;11.50;99.90;;;;;;4251412;27;20031;-83
2022/06/07 04:37:48;;;;;;;10.82;3.53;;;11.40;99.90;;;;;;4240556;27;20096;-83
2022/06/07 04:39:49;;;;;;;12.18;3.65;;;11.50;99.90;;;;;;4234955;28;20044;-84
2022/06/07 04:41:49;;;;;;;6.90;3.75;;;11.40;99.90;;;;;;4235075;28;20047;-84
2022/06/07 04:43:52;;;;;;;11.52;3.75;;;11.50;99.90;;;;;;4234273;28;20211;-84
2022/06/07 04:46:06;;;;;;;7.35;3.63;;;11.50;99.90;;;;;;4233737;28;20047;-83
2022/06/07 04:48:09;;;;;;;15.05;4.45;;;11.50;99.90;;;;;;4233933;28;20044;-84
2022/06/07 04:50:16;;;;;;;9.07;3.55;;;11.50;99.90;;;;;;4233196;28;20111;-84
2022/06/07 04:52:17;;;;;;;13.43;4.15;;;11.60;99.90;;;;;;4235188;28;20047;-83
2022/06/07 04:54:18;;;;;;;9.75;4.47;;;11.60;99.90;;;;;;4217013;28;20052;-84
2022/06/07 04:56:22;;;;;;;13.10;4.85;;;11.60;99.90;;;;;;4235431;28;20043;-84
2022/06/07 04:58:27;;;;;;;10.30;4.05;;;11.70;99.90;;;;;;4234966;28;20145;-83
2022/06/07 05:00:27;;;;;;;9.95;4.72;;;11.70;99.90;;;;;;4236344;28;20521;-84
2022/06/07 05:02:28;;;;;;;7.30;3.72;;;11.70;99.90;;;;;;4239659;28;20043;-84
2022/06/07 05:04:29;;;;;;;10.05;4.13;;;11.70;99.90;;;;;;4240158;28;20040;-84
2022/06/07 05:06:33;;;;;;;14.10;4.45;;;11.70;99.90;;;;;;4238729;28;20039;-84
2022/06/07 05:08:35;;;;;;;10.82;3.95;;;11.80;99.90;;;;;;4239847;28;20036;-84
2022/06/07 05:10:39;;;;;;;10.63;4.28;;;11.80;99.90;;;;;;4220552;28;20071;-84
2022/06/07 05:12:40;;;;;;;9.63;4.13;;;11.80;99.90;;;;;;4238399;28;20099;-84
2022/06/07 05:14:42;;;;;;;6.68;3.65;;;11.80;99.90;;;;;;4238483;28;20059;-84
2022/06/07 05:16:44;;;;;;;12.63;4.47;;;11.80;99.90;;;;;;4237439;28;20071;-83
2022/06/07 05:18:56;;;;;;;10.95;4.03;;;11.80;99.90;;;;;;4220555;28;20468;-84
2022/06/07 05:20:56;;;;;;;12.15;4.32;;;11.90;99.90;;;;;;4237493;28;20480;-83
2022/06/07 05:22:57;;;;;;;10.50;4.22;;;11.90;99.90;;;;;;4233752;28;20062;-84
2022/06/07 05:24:58;;;;;;;10.27;4.97;;;11.90;99.90;;;;;;4232196;28;20035;-84
2022/06/07 05:27:01;;;;;;;9.18;4.05;;;11.90;99.90;;;;;;4232241;28;20146;-84
2022/06/07 05:29:02;;;;;;;10.38;3.85;;;11.90;99.90;;;;;;4232534;28;20143;-84
2022/06/07 05:31:03;;;;;;;9.85;3.60;;;12.00;99.90;;;;;;4232256;28;20032;-84
2022/06/07 05:33:04;;;;;;;9.48;4.18;;;12.00;99.90;;;;;;4232298;28;20068;-84
2022/06/07 05:35:06;;;;;;;7.57;3.60;;;12.00;99.90;;;;;;4233160;28;20119;-84
2022/06/07 05:37:06;;;;;;;10.80;4.30;;;12.00;99.90;;;;;;4232795;28;20499;-83
2022/06/07 05:39:28;;;;;;;9.82;3.45;;;12.00;99.90;;;;;;4214040;28;20075;-84
2022/06/07 05:41:29;;;;;;;10.57;3.92;;;12.00;99.90;;;;;;4233151;28;20046;-83
2022/06/07 05:43:31;;;;;;;9.60;3.53;;;12.00;99.90;;;;;;4215251;28;20048;-83
2022/06/07 05:45:32;;;;;;;7.25;4.03;;;12.10;99.90;;;;;;4233075;28;20044;-83
2022/06/07 05:47:32;;;;;;;11.10;3.95;;;12.10;99.90;;;;;;4233490;28;20069;-83
2022/06/07 05:49:33;;;;;;;6.05;3.10;;;12.00;99.90;;;;;;4232552;28;20411;-83
2022/06/07 05:51:34;;;;;;;10.23;3.13;;;12.00;99.90;;;;;;4231784;28;20043;-83
2022/06/07 05:53:37;;;;;;;8.68;3.60;;;11.90;99.90;;;;;;4232009;28;20368;-83
2022/06/07 05:55:37;;;;;;;8.60;3.10;;;11.80;99.90;;;;;;4231968;28;20065;-83
2022/06/07 05:57:38;;;;;;;10.30;3.15;;;11.80;99.90;;;;;;4213235;28;20052;-82
2022/06/07 05:59:39;;;;;;;7.65;3.17;;;11.70;99.90;;;;;;4231604;28;20066;-83
2022/06/07 06:01:40;;;;;;;8.15;2.92;;;11.70;99.90;;;;;;4231865;28;20132;-82
2022/06/07 06:03:42;;;;;;;8.05;3.38;;;11.70;99.90;;;;;;4215305;28;20055;-82
2022/06/07 06:05:47;;;;;;;5.53;2.60;;;11.70;99.90;;;;;;4234986;28;20040;-83
2022/06/07 06:10:21;;;;;;;6.90;2.90;;;11.60;99.90;;;;;;4233117;28;20499;-83
2022/06/07 06:12:22;;;;;;;8.98;2.60;;;11.60;99.90;;;;;;4235329;28;20093;-81
2022/06/07 06:14:23;;;;;;;5.43;2.45;;;11.60;99.90;;;;;;4236724;28;20040;-83
2022/06/07 06:16:24;;;;;;;7.60;2.53;;;11.50;99.90;;;;;;4235695;28;20048;-83
2022/06/07 06:18:25;;;;;;;6.78;2.20;;;11.50;99.90;;;;;;4233448;28;20509;-82
2022/06/07 06:20:25;;;;;;;6.18;2.10;;;11.50;99.90;;;;;;4231714;28;20130;-81
2022/06/07 06:22:26;;;;;;;7.43;2.00;;;11.50;99.90;;;;;;4213314;28;20059;-83
2022/06/07 06:24:27;;;;;;;4.68;2.10;;;11.50;99.90;;;;;;4234449;27;20047;-83
2022/06/07 06:26:28;;;;;;;4.90;1.63;;;11.50;99.90;;;;;;4252033;27;20403;-83
2022/06/07 06:28:29;;;;;;;8.98;1.52;;;11.50;99.90;;;;;;4233876;28;20035;-83
2022/06/07 06:30:32;;;;;;;6.80;1.90;;;11.50;99.90;;;;;;4254440;27;20043;-81
2022/06/07 06:32:32;;;;;;;5.50;1.58;;;11.50;99.90;;;;;;4233812;28;20043;-82
2022/06/07 06:34:33;;;;;;;2.65;1.20;;;11.50;99.90;;;;;;4252206;27;20050;-82
2022/06/07 06:36:35;;;;;;;4.85;1.60;;;11.50;99.90;;;;;;4252298;27;20039;-82
2022/06/07 06:38:36;;;;;;;2.60;1.00;;;11.50;99.90;;;;;;4236412;28;20100;-81
2022/06/07 06:40:38;;;;;;;5.22;1.77;;;11.50;99.90;;;;;;4236128;28;20043;-82
2022/06/07 06:42:40;;;;;;;4.00;1.50;;;11.50;99.90;;;;;;4236213;28;20078;-82
2022/06/07 06:44:41;;;;;;;6.93;2.33;;;11.50;99.90;;;;;;4252187;27;20051;-82
2022/06/07 06:46:45;;;;;;;2.65;0.82;;;11.50;99.90;;;;;;4252036;27;20053;-82
2022/06/07 06:48:46;;;;;;;2.60;1.20;;;11.50;99.90;;;;;;4233629;28;20104;-82
2022/06/07 06:50:47;;;;;;;4.18;1.35;;;11.60;99.90;;;;;;4217658;28;20049;-82
2022/06/07 06:52:48;;;;;;;5.82;1.50;;;11.60;99.90;;;;;;4253069;27;20047;-82
2022/06/07 06:54:50;;;;;;;2.38;1.13;;;11.70;99.90;;;;;;4253372;27;20039;-82
2022/06/07 06:56:51;;;;;;;3.58;1.25;;;11.50;99.90;;;;;;4253953;27;20046;-82
2022/06/07 06:58:52;;;;;;;2.85;1.20;;;11.80;99.90;;;;;;4253402;27;20470;-83
2022/06/07 07:01:10;;;;;;;5.80;1.55;;;11.80;99.90;;;;;;4253695;27;20490;-83
2022/06/07 07:03:10;;;;;;;4.65;1.30;;;11.90;99.90;;;;;;4252677;27;20394;-82
2022/06/07 07:05:14;;;;;;;4.85;1.70;;;12.10;99.90;;;;;;4234499;28;20101;-82
2022/06/07 07:07:15;;;;;;;7.97;1.50;;;12.10;99.90;;;;;;4252595;27;20076;-83
2022/06/07 07:09:22;;;;;;;5.20;1.50;;;12.20;99.90;;;;;;4233626;28;20047;-83
2022/06/07 07:11:39;;;;;;;6.20;1.55;;;12.30;99.90;;;;;;4250683;27;20042;-82
2022/06/07 07:13:40;;;;;;;5.47;2.08;;;12.30;99.90;;;;;;4252237;27;20510;-83
2022/06/07 07:15:47;;;;;;;9.75;1.30;;;12.30;99.90;;;;;;4253211;27;20377;-83
2022/06/07 07:17:48;;;;;;;6.50;1.40;;;12.40;99.90;;;;;;4251797;27;20047;-82
2022/06/07 07:19:50;;;;;;;7.13;1.63;;;12.40;99.90;;;;;;4252426;27;20036;-82
2022/06/07 07:21:51;;;;;;;10.02;1.98;;;12.50;99.90;;;;;;4233537;28;20055;-82
2022/06/07 07:23:52;;;;;;;3.17;1.40;;;12.60;99.90;;;;;;4251498;27;20074;-82
2022/06/07 07:26:00;;;;;;;4.20;1.55;;;12.60;99.90;;;;;;4233289;28;20484;-82
2022/06/07 07:28:01;;;;;;;7.07;1.50;;;12.60;99.90;;;;;;4251889;27;20074;-82
2022/06/07 07:30:02;;;;;;;7.70;2.10;;;12.60;99.90;;;;;;4251543;27;20624;-82
2022/06/07 07:32:03;;;;;;;8.27;1.58;;;12.70;99.90;;;;;;4252275;27;20440;-81
2022/06/07 07:34:09;;;;;;;6.38;1.40;;;12.70;99.90;;;;;;4251496;27;20570;-82
2022/06/07 07:36:11;;;;;;;7.22;1.45;;;12.70;99.90;;;;;;4251505;27;20081;-82
2022/06/07 07:38:12;;;;;;;8.98;1.52;;;12.80;99.90;;;;;;4237392;27;20119;-82
2022/06/07 07:40:13;;;;;;;9.82;1.35;;;12.90;99.90;;;;;;4235204;28;20035;-82
2022/06/07 07:42:13;;;;;;;6.63;1.35;;;12.90;99.90;;;;;;4235119;28;20039;-82
2022/06/07 07:44:16;;;;;;;10.02;1.50;;;12.90;99.90;;;;;;4217060;28;20055;-82
2022/06/07 07:46:17;;;;;;;4.28;1.60;;;12.90;99.90;;;;;;4216771;28;20044;-82
2022/06/07 07:48:18;;;;;;;9.50;1.60;;;12.90;99.90;;;;;;4235006;28;20476;-82
2022/06/07 07:50:19;;;;;;;6.60;1.27;;;12.90;99.90;;;;;;4235074;28;20043;-81
2022/06/07 07:52:21;;;;;;;10.05;1.70;;;12.90;99.90;;;;;;4235000;28;20047;-82
2022/06/07 07:54:24;;;;;;;10.95;1.63;;;12.90;99.90;;;;;;4233980;28;20043;-82
2022/06/07 07:56:25;;;;;;;9.75;1.70;;;12.90;99.90;;;;;;4216128;28;20059;-82
2022/06/07 07:58:26;;;;;;;7.03;1.15;;;12.80;99.90;;;;;;4234354;28;20043;-82
2022/06/07 08:00:28;;;;;;;9.20;1.83;;;12.80;99.90;;;;;;4216574;28;20075;-82
2022/06/07 08:02:28;;;;;;;3.00;1.05;;;12.70;99.90;;;;;;4234961;28;20040;-82
2022/06/07 08:04:29;;;;;;;5.22;1.20;;;12.70;99.90;;;;;;4235924;28;20088;-82
2022/06/07 08:06:32;;;;;;;9.15;1.58;;;12.70;99.90;;;;;;4236176;28;20052;-82
2022/06/07 08:08:34;;;;;;;4.55;1.23;;;12.70;99.90;;;;;;4235376;28;20265;-82
2022/06/07 08:10:36;;;;;;;4.40;0.98;;;12.70;99.90;;;;;;4236452;28;20046;-82
2022/06/07 08:12:36;;;;;;;4.18;0.93;;;12.70;99.90;;;;;;4218069;28;20126;-82
2022/06/07 08:14:38;;;;;;;9.25;1.20;;;12.70;99.90;;;;;;4235983;28;20119;-82
2022/06/07 08:16:39;;;;;;;8.70;1.00;;;12.70;99.90;;;;;;4235080;28;20047;-82
2022/06/07 08:18:41;;;;;;;3.03;0.88;;;12.70;99.90;;;;;;4216447;28;20054;-82
2022/06/07 08:20:42;;;;;;;5.13;0.85;;;12.80;99.90;;;;;;4247802;27;20475;-82
2022/06/07 08:22:43;;;;;;;4.80;1.60;;;12.80;99.90;;;;;;4252419;27;20088;-82
2022/06/07 08:24:43;;;;;;;2.75;0.93;;;12.80;99.90;;;;;;4253421;27;20054;-81
2022/06/07 08:26:48;;;;;;;4.50;0.82;;;12.90;99.90;;;;;;4254443;27;20380;-82
2022/06/07 08:28:49;;;;;;;4.78;1.23;;;13.00;99.90;;;;;;4252965;27;20031;-82
2022/06/07 08:30:50;;;;;;;6.78;1.23;;;13.10;99.90;;;;;;4252517;27;20434;-82
2022/06/07 08:32:51;;;;;;;7.15;1.00;;;13.20;99.90;;;;;;4252102;27;20091;-82
2022/06/07 08:39:32;;;;;;;6.45;0.93;;;13.40;99.90;;;;;;4251255;27;20398;-82
2022/06/07 08:41:35;;;;;;;5.47;1.33;;;13.50;99.90;;;;;;4250527;27;20141;-82
2022/06/07 08:43:36;;;;;;;16.30;1.98;;;13.60;99.90;;;;;;4251440;27;20042;-82
2022/06/07 08:45:40;;;;;;;10.00;0.90;;;13.80;99.90;;;;;;4251183;27;20043;-81
2022/06/07 08:47:46;;;;;;;12.35;1.33;;;13.90;99.90;;;;;;4250835;27;20051;-83
2022/06/07 08:49:47;;;;;;;8.07;1.63;;;14.00;99.90;;;;;;4250617;27;20122;-82
2022/06/07 08:51:58;;;;;;;3.75;0.93;;;14.10;99.90;;;;;;4249911;27;20376;-82
2022/06/07 08:54:02;;;;;;;3.38;1.02;;;14.10;99.90;;;;;;4250840;27;20066;-82
2022/06/07 08:56:08;;;;;;;3.90;1.85;;;14.20;99.90;;;;;;4250420;27;20050;-82
2022/06/07 08:58:18;;;;;;;9.65;1.40;;;14.20;99.90;;;;;;4250806;27;20439;-82
2022/06/07 09:00:25;;;;;;;4.07;1.88;;;14.30;99.90;;;;;;4251813;27;20043;-82
2022/06/07 09:02:52;;;;;;;7.40;0.93;;;14.30;99.90;;;;;;4256399;27;20043;-82
2022/06/07 09:04:55;;;;;;;7.90;0.90;;;14.30;99.90;;;;;;4197616;28;20058;-82
2022/06/07 09:07:05;;;;;;;4.55;0.82;;;14.30;99.90;;;;;;4255398;27;20116;-83
2022/06/07 09:09:08;;;;;;;5.28;0.95;;;14.30;99.90;;;;;;4221244;28;20044;-83
2022/06/07 09:14:06;;;;;;;4.80;1.02;;;14.30;99.90;;;;;;4216543;27;20051;-83
2022/06/07 09:16:12;;;;;;;11.15;1.83;;;14.30;99.90;;;;;;4253432;27;20035;-82
2022/06/07 09:18:16;;;;;;;4.57;0.82;;;14.30;99.90;;;;;;4251447;27;20128;-82
2022/06/07 09:20:22;;;;;;;5.70;0.60;;;14.30;99.90;;;;;;4237160;28;20147;-83
2022/06/07 09:22:29;;;;;;;8.25;1.45;;;14.30;99.90;;;;;;4240144;28;20054;-82
2022/06/07 09:25:11;;;;;;;10.02;1.65;;;14.20;99.90;;;;;;4257773;27;20039;-82
2022/06/07 09:27:15;;;;;;;2.33;0.60;;;14.10;99.90;;;;;;4209577;27;20054;-82
2022/06/07 09:29:22;;;;;;;8.13;2.22;;;14.10;99.90;;;;;;4254330;27;20043;-82
2022/06/07 09:31:26;;;;;;;6.32;0.80;;;14.10;99.90;;;;;;4251953;27;20095;-82
2022/06/07 09:33:30;;;;;;;9.68;0.95;;;14.00;99.90;;;;;;4253357;27;20043;-82
2022/06/07 09:35:41;;;;;;;5.60;0.95;;;13.90;99.90;;;;;;4251370;27;20047;-82
2022/06/07 09:37:54;;;;;;;6.93;0.70;;;13.80;99.90;;;;;;4253408;27;20112;-82
2022/06/07 09:40:18;;;;;;;4.30;0.82;;;13.70;99.90;;;;;;4236952;28;20039;-82
2022/06/07 09:42:29;;;;;;;5.28;0.70;;;13.60;99.90;;;;;;4259709;27;20123;-82
2022/06/07 09:44:54;;;;;;;7.38;1.42;;;13.60;99.90;;;;;;4262406;27;20047;-82
2022/06/07 09:47:03;;;;;;;7.07;0.88;;;13.60;99.90;;;;;;4257346;27;20043;-82
2022/06/07 09:49:06;;;;;;;5.38;0.70;;;13.60;99.90;;;;;;4243459;27;20046;-83
2022/06/07 09:51:06;;;;;;;3.88;0.70;;;13.60;99.90;;;;;;4251172;27;20122;-83
2022/06/07 09:53:10;;;;;;;2.92;0.85;;;13.70;99.90;;;;;;4248609;27;20046;-83
2022/06/07 09:55:40;;;;;;;2.97;0.50;;;13.70;99.90;;;;;;4247733;27;20099;-84
2022/06/07 09:57:48;;;;;;;3.00;0.80;;;13.80;99.90;;;;;;4249129;27;20066;-83
2022/06/07 09:59:57;;;;;;;6.37;0.90;;;13.80;99.90;;;;;;4248624;27;20122;-84
2022/06/07 10:02:10;;;;;;;;;;;14.00;99.90;;;;;;4249266;27;20360;-84
2022/06/07 10:04:37;;;;;;;3.65;0.65;;;14.10;99.90;;;;;;4248449;27;20332;-84
2022/06/07 10:06:46;;;;;;;6.00;0.90;;;14.30;99.90;;;;;;4249356;27;20130;-84
2022/06/07 10:09:05;;;;;;;3.33;0.70;;;14.50;99.90;;;;;;4249029;27;20039;-84
2022/06/07 10:11:15;;;;;;;3.90;0.98;;;14.60;99.90;;;;;;4247896;27;20043;-84
2022/06/07 10:13:25;;;;;;;5.28;1.10;;;14.70;99.90;;;;;;4248148;27;20047;-84
2022/06/07 10:15:38;;;;;;;4.90;0.70;;;14.70;99.90;;;;;;4231003;28;20048;-83
2022/06/07 10:17:54;;;;;;;6.53;1.33;;;14.70;99.90;;;;;;4248727;27;20108;-84
2022/06/07 10:20:30;;;;;;;6.45;0.98;;;14.60;99.90;;;;;;4248747;28;20055;-84
2022/06/07 10:22:49;;;;;;;5.40;1.00;;;14.60;99.90;;;;;;4234545;27;20051;-83
2022/06/07 10:25:23;;;;;;;6.97;0.95;;;14.50;99.90;;;;;;4248638;28;20050;-83
2022/06/07 10:27:38;;;;;;;6.75;1.00;;;14.50;99.90;;;;;;4248485;28;20055;-84
2022/06/07 10:30:26;;;;;;;6.05;1.45;;;14.50;99.90;;;;;;4248755;28;20068;-84
2022/06/07 10:32:58;;;;;;;7.90;1.77;;;14.60;99.90;;;;;;4217201;28;20449;-83
2022/06/07 10:35:17;;;;;;;9.60;1.17;;;14.60;99.90;;;;;;4247617;28;20086;-83
2022/06/07 10:37:37;;;;;;;5.55;1.67;;;14.60;99.90;;;;;;4247795;28;20043;-83
2022/06/07 10:39:57;;;;;;;5.85;0.98;;;14.60;99.90;;;;;;4247873;28;20039;-83
2022/06/07 10:42:23;;;;;;;6.47;0.98;;;14.60;99.90;;;;;;4230288;28;20048;-84
2022/06/07 10:44:29;;;;;;;7.10;1.17;;;14.50;99.90;;;;;;4229542;28;20414;-84
2022/06/07 10:46:30;;;;;;;8.18;1.00;;;14.40;99.90;;;;;;4249115;28;20070;-84
2022/06/07 10:48:47;;;;;;;4.88;1.00;;;14.40;99.90;;;;;;4247946;28;20053;-83
2022/06/07 10:50:55;;;;;;;4.20;0.60;;;14.30;99.90;;;;;;4248793;28;20123;-83
2022/06/07 10:53:08;;;;;;;5.20;0.80;;;14.30;99.90;;;;;;4248011;28;20068;-83
2022/06/07 10:55:14;;;;;;;5.00;0.82;;;14.30;99.90;;;;;;4230074;28;20044;-83
2022/06/07 10:57:18;;;;;;;5.32;1.45;;;14.30;99.90;;;;;;4247904;28;20064;-84
2022/06/07 10:59:22;;;;;;;4.00;0.80;;;14.30;99.90;;;;;;4248648;27;20047;-84
2022/06/07 11:01:29;;;;;;;3.75;0.88;;;14.30;99.90;;;;;;4230381;28;20036;-83